Time;durP1;ratioP1;P1;durP2;ratioP2;P2;SDS_P1;SDS_P2;PMS_P1;PMS_P2;Temp;Humidity;BMP_temperature;BMP_pressure;BME280_temperature;BME280_humidity;BME280_pressure;Samples;Min_cycle;Max_cycle;Signal;HPM_P1;HPM_P2
2023/06/08 00:02:23;;;;;;;2.38;2.13;;;;;;;;;;12905405;23;20032;-88
2023/06/08 00:07:27;;;;;;;2.50;1.90;;;;;;;;;;12906803;22;20116;-87
2023/06/08 00:12:32;;;;;;;4.32;2.22;;;;;;;;;;12877148;23;20576;-86
2023/06/08 00:17:35;;;;;;;2.60;2.40;;;;;;;;;;12876794;23;20024;-86
2023/06/08 00:22:39;;;;;;;3.88;2.53;;;;;;;;;;12903157;23;20024;-86
2023/06/08 00:27:44;;;;;;;3.72;2.10;;;;;;;;;;12902774;22;20034;-86
2023/06/08 00:32:47;;;;;;;2.88;2.25;;;;;;;;;;12904829;23;20150;-86
2023/06/08 00:37:51;;;;;;;2.30;2.10;;;;;;;;;;12877117;23;20024;-85
2023/06/08 00:42:56;;;;;;;2.83;2.20;;;;;;;;;;12878115;23;20104;-86
2023/06/08 00:47:59;;;;;;;2.03;1.75;;;;;;;;;;12876278;23;20028;-87
2023/06/08 00:53:03;;;;;;;2.67;2.10;;;;;;;;;;12879084;23;20456;-86
2023/06/08 00:58:13;;;;;;;2.55;2.10;;;;;;;;;;12912638;22;20498;-87
2023/06/08 01:03:16;;;;;;;2.67;2.08;;;;;;;;;;12878013;23;20455;-87
2023/06/08 01:08:39;;;;;;;2.63;2.33;;;;;;;;;;12880697;23;20047;-86
2023/06/08 01:13:54;;;;;;;4.80;2.10;;;;;;;;;;12880458;22;20028;-87
2023/06/08 01:18:59;;;;;;;3.80;2.33;;;;;;;;;;12909569;23;20031;-86
2023/06/08 01:24:12;;;;;;;2.63;2.00;;;;;;;;;;12877638;22;20111;-87
2023/06/08 01:29:17;;;;;;;2.85;2.10;;;;;;;;;;12879439;23;20028;-87
2023/06/08 01:34:21;;;;;;;2.65;1.85;;;;;;;;;;12876596;22;20414;-87
2023/06/08 01:39:36;;;;;;;3.67;2.15;;;;;;;;;;12871038;23;20020;-85
2023/06/08 01:44:50;;;;;;;2.83;2.35;;;;;;;;;;12906347;22;20371;-86
2023/06/08 01:49:55;;;;;;;2.47;2.25;;;;;;;;;;12875223;23;20024;-86
2023/06/08 01:55:00;;;;;;;4.20;2.47;;;;;;;;;;12874352;22;20044;-87
2023/06/08 02:00:04;;;;;;;3.08;2.20;;;;;;;;;;12876673;23;20380;-86
2023/06/08 02:05:16;;;;;;;5.30;2.75;;;;;;;;;;12901222;22;20028;-85
2023/06/08 02:10:23;;;;;;;2.55;2.28;;;;;;;;;;12877015;23;20024;-85
2023/06/08 02:15:26;;;;;;;3.15;2.42;;;;;;;;;;12876706;22;20082;-86
2023/06/08 02:20:33;;;;;;;2.83;2.33;;;;;;;;;;12877434;23;20016;-85
2023/06/08 02:25:38;;;;;;;2.60;2.35;;;;;;;;;;12921789;22;20026;-85
2023/06/08 02:30:41;;;;;;;2.50;2.30;;;;;;;;;;12867256;22;20023;-81
2023/06/08 02:35:46;;;;;;;3.22;2.42;;;;;;;;;;12913006;23;20437;-81
2023/06/08 02:40:51;;;;;;;3.07;2.13;;;;;;;;;;12893048;23;20508;-81
2023/06/08 02:45:55;;;;;;;2.80;2.15;;;;;;;;;;12893439;23;20024;-80
2023/06/08 02:51:02;;;;;;;1.88;1.73;;;;;;;;;;12918518;23;20024;-80
2023/06/08 02:56:07;;;;;;;2.58;2.20;;;;;;;;;;12892145;23;20028;-81
2023/06/08 03:01:14;;;;;;;2.08;1.88;;;;;;;;;;12893353;23;20365;-81
2023/06/08 03:06:36;;;;;;;2.72;2.17;;;;;;;;;;12892230;23;20032;-80
2023/06/08 03:11:43;;;;;;;2.97;2.10;;;;;;;;;;12892315;23;20048;-81
2023/06/08 03:16:48;;;;;;;3.15;2.17;;;;;;;;;;12917959;23;20024;-81
2023/06/08 03:21:53;;;;;;;4.20;2.55;;;;;;;;;;12892573;23;20479;-81
2023/06/08 03:26:59;;;;;;;4.28;2.22;;;;;;;;;;12892443;23;20024;-80
2023/06/08 03:32:03;;;;;;;2.88;2.28;;;;;;;;;;12892093;23;20020;-80
2023/06/08 03:37:09;;;;;;;2.67;2.10;;;;;;;;;;12917217;22;20078;-81
2023/06/08 03:42:16;;;;;;;2.20;2.00;;;;;;;;;;12892477;23;20030;-80
2023/06/08 03:47:23;;;;;;;4.63;2.30;;;;;;;;;;12892250;23;20410;-80
2023/06/08 03:52:27;;;;;;;2.67;2.15;;;;;;;;;;12893169;23;20030;-80
2023/06/08 03:57:32;;;;;;;3.08;2.38;;;;;;;;;;12891943;23;20021;-80
2023/06/08 04:02:36;;;;;;;3.10;2.38;;;;;;;;;;12893244;23;20078;-80
2023/06/08 04:07:40;;;;;;;3.55;2.50;;;;;;;;;;12895891;23;20034;-81
2023/06/08 04:12:45;;;;;;;3.10;2.20;;;;;;;;;;12895930;23;20028;-80
2023/06/08 04:17:49;;;;;;;4.05;2.78;;;;;;;;;;12892811;23;20026;-80
2023/06/08 04:22:57;;;;;;;5.25;2.55;;;;;;;;;;12896759;22;20024;-80
2023/06/08 04:28:02;;;;;;;3.85;2.67;;;;;;;;;;12896648;23;20015;-80
2023/06/08 04:33:06;;;;;;;2.55;2.20;;;;;;;;;;12892682;22;20028;-81
2023/06/08 04:38:14;;;;;;;2.58;2.28;;;;;;;;;;12892843;23;20030;-80
2023/06/08 04:43:21;;;;;;;3.13;2.30;;;;;;;;;;12892334;22;20032;-81
2023/06/08 04:48:27;;;;;;;3.08;2.58;;;;;;;;;;12891889;23;20411;-80
2023/06/08 04:53:33;;;;;;;3.70;2.50;;;;;;;;;;12927439;22;20032;-81
2023/06/08 04:58:38;;;;;;;4.47;2.33;;;;;;;;;;12939135;23;20047;-80
2023/06/08 05:03:42;;;;;;;2.40;2.20;;;;;;;;;;12904636;22;20278;-81
2023/06/08 05:08:46;;;;;;;2.25;2.05;;;;;;;;;;12895815;23;20492;-80
2023/06/08 05:13:51;;;;;;;3.70;2.20;;;;;;;;;;12919005;22;20462;-80
2023/06/08 05:18:55;;;;;;;2.40;2.10;;;;;;;;;;12924135;23;20462;-80
2023/06/08 05:23:58;;;;;;;2.72;2.15;;;;;;;;;;12923538;22;20020;-80
2023/06/08 05:29:03;;;;;;;2.85;2.25;;;;;;;;;;12922635;23;20024;-80
2023/06/08 05:34:06;;;;;;;3.58;2.05;;;;;;;;;;12876110;22;1078565;-80
2023/06/08 05:39:10;;;;;;;2.63;2.42;;;;;;;;;;12894470;23;20025;-80
2023/06/08 05:44:15;;;;;;;2.72;2.03;;;;;;;;;;12925166;22;20028;-80
2023/06/08 05:49:18;;;;;;;2.92;2.25;;;;;;;;;;12893918;23;20024;-80
2023/06/08 05:54:22;;;;;;;4.65;2.78;;;;;;;;;;12920329;22;20110;-80
2023/06/08 05:59:27;;;;;;;2.05;1.85;;;;;;;;;;12920674;23;20476;-80
2023/06/08 06:04:30;;;;;;;2.67;2.13;;;;;;;;;;12923334;22;20461;-80
2023/06/08 06:09:38;;;;;;;3.22;2.10;;;;;;;;;;12918865;23;20523;-81
2023/06/08 06:14:44;;;;;;;3.10;2.08;;;;;;;;;;12893723;22;20023;-80
2023/06/08 06:19:47;;;;;;;2.35;1.85;;;;;;;;;;12922181;23;20021;-80
2023/06/08 06:24:51;;;;;;;2.00;1.80;;;;;;;;;;12891948;22;20050;-80
2023/06/08 06:29:57;;;;;;;3.20;2.03;;;;;;;;;;12920607;23;20066;-81
2023/06/08 06:35:00;;;;;;;2.53;1.92;;;;;;;;;;12920098;22;20028;-81
2023/06/08 06:40:06;;;;;;;2.60;2.40;;;;;;;;;;12892806;23;20721;-81
2023/06/08 06:45:11;;;;;;;4.38;1.98;;;;;;;;;;12894005;22;20106;-81
2023/06/08 06:50:15;;;;;;;2.63;2.10;;;;;;;;;;12922054;23;20024;-81
2023/06/08 06:55:18;;;;;;;2.97;2.05;;;;;;;;;;12891360;22;20031;-82
2023/06/08 07:00:24;;;;;;;2.47;1.85;;;;;;;;;;12893160;23;20450;-81
2023/06/08 07:05:27;;;;;;;2.30;2.10;;;;;;;;;;12917267;22;20032;-80
2023/06/08 07:17:12;;;;;;;2.95;2.03;;;;;;;;;;12814435;23;20091;-81
2023/06/08 07:28:31;;;;;;;3.03;2.17;;;;;;;;;;12872003;23;20353;-80
2023/06/08 07:33:34;;;;;;;2.63;2.17;;;;;;;;;;12847137;22;20561;-81
2023/06/08 07:38:40;;;;;;;4.18;2.20;;;;;;;;;;12922538;23;20024;-81
2023/06/08 07:43:43;;;;;;;3.25;2.08;;;;;;;;;;12920977;22;20095;-81
2023/06/08 07:48:46;;;;;;;2.63;2.00;;;;;;;;;;12924783;23;20074;-81
2023/06/08 07:53:51;;;;;;;2.42;2.13;;;;;;;;;;12926209;22;20024;-81
2023/06/08 07:58:55;;;;;;;2.22;1.92;;;;;;;;;;12889769;23;20054;-81
2023/06/08 08:03:58;;;;;;;2.45;1.85;;;;;;;;;;12894463;22;20039;-81
2023/06/08 08:09:04;;;;;;;2.25;2.05;;;;;;;;;;12892493;23;20605;-81
2023/06/08 08:14:09;;;;;;;2.17;1.80;;;;;;;;;;12890658;22;20107;-80
2023/06/08 08:19:13;;;;;;;2.30;1.80;;;;;;;;;;12925299;23;20182;-81
2023/06/08 08:24:28;;;;;;;3.10;2.10;;;;;;;;;;12894776;22;20028;-81
2023/06/08 08:35:10;;;;;;;1.63;1.52;;;;;;;;;;12857448;22;20021;-83
2023/06/08 08:40:15;;;;;;;1.80;1.60;;;;;;;;;;12910288;23;20028;-83
2023/06/08 08:45:21;;;;;;;1.95;1.75;;;;;;;;;;12887963;22;20028;-83
2023/06/08 08:50:25;;;;;;;2.72;2.30;;;;;;;;;;12912231;23;20315;-83
2023/06/08 08:55:33;;;;;;;2.03;1.83;;;;;;;;;;12910184;22;20028;-83
2023/06/08 09:00:37;;;;;;;3.17;2.05;;;;;;;;;;12882487;23;20074;-83
2023/06/08 09:05:41;;;;;;;3.90;2.72;;;;;;;;;;12908491;22;20406;-83
2023/06/08 09:11:03;;;;;;;4.82;3.20;;;;;;;;;;12889014;23;20020;-84
2023/06/08 09:16:11;;;;;;;2.40;2.20;;;;;;;;;;12889140;22;20027;-84
2023/06/08 09:21:21;;;;;;;2.60;2.13;;;;;;;;;;12890122;23;20016;-84
2023/06/08 09:26:32;;;;;;;2.35;2.15;;;;;;;;;;12915943;22;20020;-84
2023/06/08 09:31:39;;;;;;;2.28;1.80;;;;;;;;;;12888833;23;20024;-84
2023/06/08 09:36:43;;;;;;;4.10;2.00;;;;;;;;;;12887100;23;20035;-84
2023/06/08 09:41:57;;;;;;;2.10;1.83;;;;;;;;;;12889299;23;20044;-84
2023/06/08 09:47:01;;;;;;;3.03;2.17;;;;;;;;;;12888723;23;20028;-84
2023/06/08 09:52:06;;;;;;;3.33;2.10;;;;;;;;;;12916499;23;20027;-84
2023/06/08 09:57:12;;;;;;;2.50;1.92;;;;;;;;;;12928952;22;20039;-84
2023/06/08 10:02:22;;;;;;;2.13;1.92;;;;;;;;;;12912104;23;20020;-83
2023/06/08 10:07:29;;;;;;;2.10;1.90;;;;;;;;;;12886229;23;20024;-84
2023/06/08 10:12:36;;;;;;;2.30;1.90;;;;;;;;;;12885894;23;20492;-84
2023/06/08 10:17:41;;;;;;;3.20;2.30;;;;;;;;;;12921436;22;20455;-84
2023/06/08 10:22:46;;;;;;;2.88;2.35;;;;;;;;;;12884096;23;20027;-83
2023/06/08 10:27:51;;;;;;;1.98;1.83;;;;;;;;;;12911819;22;20020;-84
2023/06/08 10:33:06;;;;;;;2.17;1.98;;;;;;;;;;12884996;23;20044;-84
2023/06/08 10:38:11;;;;;;;3.33;2.17;;;;;;;;;;12883077;23;20043;-84
2023/06/08 10:43:17;;;;;;;2.60;2.20;;;;;;;;;;12886051;23;20046;-84
2023/06/08 10:48:37;;;;;;;2.38;1.92;;;;;;;;;;12913322;22;20100;-84
2023/06/08 10:53:56;;;;;;;2.17;1.98;;;;;;;;;;12879790;23;20070;-83
2023/06/08 10:59:00;;;;;;;1.60;1.50;;;;;;;;;;12880347;23;20110;-84
2023/06/08 11:04:05;;;;;;;2.60;2.03;;;;;;;;;;12879964;22;20046;-83
2023/06/08 11:09:09;;;;;;;2.15;1.95;;;;;;;;;;12880698;23;20384;-84
2023/06/08 11:14:20;;;;;;;2.30;1.92;;;;;;;;;;12879535;22;20482;-83
2023/06/08 11:19:25;;;;;;;3.92;1.90;;;;;;;;;;12881725;23;20028;-83
2023/06/08 11:24:28;;;;;;;2.83;2.13;;;;;;;;;;12876154;22;20436;-84
2023/06/08 11:29:33;;;;;;;2.60;2.40;;;;;;;;;;12903853;23;20417;-84
2023/06/08 11:34:38;;;;;;;2.05;1.85;;;;;;;;;;12903409;22;20517;-84
2023/06/08 11:39:45;;;;;;;1.58;1.48;;;;;;;;;;12905005;23;20039;-83
2023/06/08 11:44:50;;;;;;;2.17;1.98;;;;;;;;;;12902190;22;20376;-84
2023/06/08 11:49:54;;;;;;;2.53;2.15;;;;;;;;;;12898645;23;20471;-84
2023/06/08 11:54:59;;;;;;;2.03;1.90;;;;;;;;;;12875842;22;20035;-83
2023/06/08 12:00:08;;;;;;;2.00;1.88;;;;;;;;;;12875335;23;20043;-84
2023/06/08 12:05:16;;;;;;;2.13;1.92;;;;;;;;;;12903158;22;20024;-83
2023/06/08 12:10:19;;;;;;;3.05;2.55;;;;;;;;;;12902209;23;20047;-84
2023/06/08 12:15:24;;;;;;;1.88;1.70;;;;;;;;;;12902013;22;20024;-83
2023/06/08 12:20:30;;;;;;;;;;;;;;;;;;12874352;23;20028;-84
2023/06/08 12:25:35;;;;;;;2.50;1.63;;;;;;;;;;12876017;22;19919;-83
2023/06/08 12:30:40;;;;;;;2.60;2.40;;;;;;;;;;12880080;23;20107;-83
2023/06/08 12:35:43;;;;;;;2.70;2.30;;;;;;;;;;12909433;22;20020;-84
2023/06/08 12:40:48;;;;;;;2.13;1.85;;;;;;;;;;12884152;23;20062;-83
2023/06/08 12:45:53;;;;;;;;;;;;;;;;;;12908977;22;20352;-83
2023/06/08 12:50:57;;;;;;;1.90;1.70;;;;;;;;;;12908474;23;19922;-83
2023/06/08 12:56:00;;;;;;;1.65;1.55;;;;;;;;;;12909051;22;20863;-83
2023/06/08 13:01:05;;;;;;;2.42;1.88;;;;;;;;;;12881135;23;20368;-84
2023/06/08 13:06:08;;;;;;;2.33;2.00;;;;;;;;;;12905356;22;20395;-83
2023/06/08 13:11:12;;;;;;;2.08;1.90;;;;;;;;;;12893837;23;20415;-83
2023/06/08 13:16:17;;;;;;;2.35;1.60;;;;;;;;;;12902052;22;20035;-82
2023/06/08 13:21:23;;;;;;;1.63;1.52;;;;;;;;;;12873750;23;20031;-84
2023/06/08 13:26:29;;;;;;;1.70;1.60;;;;;;;;;;12907545;22;20048;-83
2023/06/08 13:31:34;;;;;;;1.67;1.58;;;;;;;;;;12917684;23;20020;-84
2023/06/08 13:36:39;;;;;;;2.00;1.80;;;;;;;;;;12874622;22;20094;-84
2023/06/08 13:41:45;;;;;;;2.58;1.65;;;;;;;;;;12875709;23;20028;-83
2023/06/08 13:46:50;;;;;;;1.92;1.80;;;;;;;;;;12908354;22;20043;-83
2023/06/08 13:51:53;;;;;;;;;;;;;;;;;;12908955;23;20039;-83
2023/06/08 13:56:59;;;;;;;1.58;1.48;;;;;;;;;;12925505;22;19926;-82
2023/06/08 14:02:03;;;;;;;1.88;1.77;;;;;;;;;;12885871;23;20480;-83
2023/06/08 14:07:07;;;;;;;2.22;1.73;;;;;;;;;;12885999;23;20024;-83
2023/06/08 14:12:13;;;;;;;1.98;1.45;;;;;;;;;;12880640;23;20020;-82
2023/06/08 14:17:18;;;;;;;5.38;2.30;;;;;;;;;;12909121;22;20024;-86
2023/06/08 14:22:21;;;;;;;9.05;2.72;;;;;;;;;;12879576;23;20023;-86
2023/06/08 14:27:26;;;;;;;4.07;1.70;;;;;;;;;;12877841;23;20028;-85
2023/06/08 14:32:31;;;;;;;2.75;2.17;;;;;;;;;;12872240;22;20029;-86
2023/06/08 14:37:34;;;;;;;1.77;1.67;;;;;;;;;;12888923;23;20023;-86
2023/06/08 14:42:38;;;;;;;1.52;1.42;;;;;;;;;;12900865;23;20355;-86
2023/06/08 14:47:43;;;;;;;1.58;1.45;;;;;;;;;;12902209;22;20020;-85
2023/06/08 14:52:46;;;;;;;2.83;2.15;;;;;;;;;;12877165;23;20020;-85
2023/06/08 14:57:50;;;;;;;2.13;1.85;;;;;;;;;;12875525;23;20216;-84
2023/06/08 15:02:55;;;;;;;2.67;1.77;;;;;;;;;;12875329;23;20024;-84
2023/06/08 15:07:58;;;;;;;;;;;;;;;;;;12876108;23;20479;-85
2023/06/08 15:13:02;;;;;;;3.08;2.38;;;;;;;;;;12875285;23;19916;-86
2023/06/08 15:18:08;;;;;;;2.45;2.03;;;;;;;;;;12872697;23;20363;-85
2023/06/08 15:23:13;;;;;;;2.22;2.00;;;;;;;;;;12903026;23;20031;-85
2023/06/08 15:28:16;;;;;;;1.80;1.60;;;;;;;;;;12876369;23;20024;-84
2023/06/08 15:33:21;;;;;;;1.80;1.67;;;;;;;;;;12874047;23;20044;-85
2023/06/08 15:38:26;;;;;;;1.65;1.55;;;;;;;;;;12873834;23;20020;-84
2023/06/08 15:43:29;;;;;;;3.47;2.40;;;;;;;;;;12902300;23;20020;-85
2023/06/08 15:48:34;;;;;;;3.50;1.90;;;;;;;;;;12877741;23;20024;-85
2023/06/08 15:53:37;;;;;;;2.20;2.00;;;;;;;;;;12882781;23;20099;-85
2023/06/08 15:58:54;;;;;;;2.03;1.60;;;;;;;;;;12879763;23;20020;-85
2023/06/08 16:10:09;;;;;;;2.33;1.40;;;;;;;;;;12837934;23;20107;-84
2023/06/08 16:15:31;;;;;;;2.72;1.80;;;;;;;;;;12886037;22;20376;-87
2023/06/08 16:20:37;;;;;;;2.67;2.03;;;;;;;;;;12882010;23;20027;-87
2023/06/08 16:25:43;;;;;;;2.92;2.45;;;;;;;;;;12884229;22;20024;-88
2023/06/08 16:30:46;;;;;;;2.72;2.17;;;;;;;;;;12885020;23;20399;-87
2023/06/08 16:35:54;;;;;;;2.20;1.95;;;;;;;;;;12883352;22;20016;-88
2023/06/08 16:41:07;;;;;;;2.10;1.90;;;;;;;;;;12884329;23;20024;-88
2023/06/08 16:46:13;;;;;;;1.60;1.30;;;;;;;;;;12882264;22;20584;-87
2023/06/08 16:51:17;;;;;;;2.10;1.90;;;;;;;;;;12881519;23;20028;-88
2023/06/08 16:56:22;;;;;;;2.78;1.88;;;;;;;;;;12882507;22;20459;-87
2023/06/08 17:01:26;;;;;;;2.45;2.00;;;;;;;;;;12885097;23;20481;-87
2023/06/08 17:06:29;;;;;;;2.30;2.10;;;;;;;;;;12878106;22;20521;-87
2023/06/08 17:11:34;;;;;;;3.05;2.42;;;;;;;;;;12905633;23;20024;-87
2023/06/08 17:16:38;;;;;;;2.17;1.97;;;;;;;;;;12906581;22;20031;-87
2023/06/08 17:21:41;;;;;;;1.70;1.60;;;;;;;;;;12878886;23;20115;-88
2023/06/08 17:26:46;;;;;;;2.10;1.58;;;;;;;;;;12879528;23;20300;-87
2023/06/08 17:31:49;;;;;;;2.20;1.60;;;;;;;;;;12880541;23;20020;-89
2023/06/08 17:36:53;;;;;;;1.90;1.30;;;;;;;;;;12880447;23;20082;-86
2023/06/08 17:41:58;;;;;;;1.67;1.48;;;;;;;;;;12901979;23;20024;-87
2023/06/08 17:47:02;;;;;;;1.43;1.33;;;;;;;;;;12879542;23;20027;-87
2023/06/08 17:52:06;;;;;;;1.58;1.40;;;;;;;;;;12879990;23;20403;-87
2023/06/08 17:57:11;;;;;;;2.17;1.77;;;;;;;;;;12880471;23;20798;-86
2023/06/08 18:02:19;;;;;;;1.60;1.47;;;;;;;;;;12882687;23;20036;-88
2023/06/08 18:07:22;;;;;;;1.92;1.50;;;;;;;;;;12906633;22;20028;-89
2023/06/08 18:12:30;;;;;;;1.77;1.25;;;;;;;;;;12880233;23;20016;-87
2023/06/08 18:17:33;;;;;;;1.67;1.58;;;;;;;;;;12908093;22;20086;-88
2023/06/08 18:22:38;;;;;;;2.05;1.65;;;;;;;;;;12911012;23;20067;-90
2023/06/08 18:27:43;;;;;;;2.03;1.73;;;;;;;;;;12883915;23;20091;-89
2023/06/08 18:32:46;;;;;;;2.00;1.63;;;;;;;;;;12910583;23;20028;-87
2023/06/08 18:37:50;;;;;;;1.85;1.65;;;;;;;;;;12882153;23;20024;-89
2023/06/08 18:42:55;;;;;;;3.22;1.70;;;;;;;;;;12903266;23;20026;-90
2023/06/08 18:48:00;;;;;;;2.07;1.87;;;;;;;;;;12908119;22;20020;-87
2023/06/08 18:53:03;;;;;;;1.90;1.75;;;;;;;;;;12879597;23;20111;-87
2023/06/08 18:58:08;;;;;;;1.67;1.58;;;;;;;;;;12909676;22;20058;-88
2023/06/08 19:03:12;;;;;;;2.75;1.70;;;;;;;;;;12906214;23;20031;-87
2023/06/08 19:08:15;;;;;;;2.25;1.88;;;;;;;;;;12880291;23;20487;-87
2023/06/08 19:13:20;;;;;;;3.22;2.10;;;;;;;;;;12883518;23;20027;-87
2023/06/08 19:18:36;;;;;;;2.88;1.85;;;;;;;;;;12886137;23;20739;-87
2023/06/08 19:23:40;;;;;;;1.98;1.75;;;;;;;;;;12884894;23;20020;-89
2023/06/08 19:28:45;;;;;;;3.15;1.63;;;;;;;;;;12884440;23;20031;-90
2023/06/08 19:33:48;;;;;;;2.05;1.58;;;;;;;;;;12886142;22;20020;-90
2023/06/08 19:38:53;;;;;;;2.50;1.80;;;;;;;;;;12884657;23;20044;-92
2023/06/08 19:43:58;;;;;;;2.17;1.98;;;;;;;;;;12885947;22;20078;-91
2023/06/08 19:49:01;;;;;;;2.42;1.90;;;;;;;;;;12911018;23;20106;-90
2023/06/08 19:54:05;;;;;;;2.60;2.20;;;;;;;;;;12884677;22;20030;-92
2023/06/08 19:59:10;;;;;;;2.90;2.00;;;;;;;;;;12912134;23;20095;-89
2023/06/08 20:04:14;;;;;;;2.57;1.70;;;;;;;;;;12908066;22;20020;-92
2023/06/08 20:09:21;;;;;;;2.95;2.13;;;;;;;;;;12912918;23;20084;-90
2023/06/08 20:14:26;;;;;;;2.58;2.00;;;;;;;;;;12885013;22;20031;-89
2023/06/08 20:19:32;;;;;;;2.85;2.55;;;;;;;;;;12885245;23;20030;-90
2023/06/08 20:24:36;;;;;;;;;;;;;;;;;;12885109;22;20063;-91
2023/06/08 20:29:41;;;;;;;2.45;1.95;;;;;;;;;;12885449;22;19943;-82
2023/06/08 20:34:44;;;;;;;2.53;2.03;;;;;;;;;;12831217;23;20059;-82
2023/06/08 20:39:48;;;;;;;2.28;2.08;;;;;;;;;;12883537;23;20482;-83
2023/06/08 20:44:52;;;;;;;2.13;1.80;;;;;;;;;;12881161;22;20284;-81
2023/06/08 20:49:57;;;;;;;2.40;2.20;;;;;;;;;;12885855;23;20059;-82
2023/06/08 20:55:01;;;;;;;2.30;1.85;;;;;;;;;;12911050;22;20015;-85
2023/06/08 21:00:09;;;;;;;3.75;2.15;;;;;;;;;;12884628;23;20337;-85
2023/06/08 21:05:15;;;;;;;2.88;2.08;;;;;;;;;;12910943;22;20020;-84
2023/06/08 21:10:19;;;;;;;3.13;2.20;;;;;;;;;;12910897;23;20016;-84
2023/06/08 21:15:24;;;;;;;3.13;2.50;;;;;;;;;;12909368;22;20078;-84
2023/06/08 21:20:27;;;;;;;2.45;2.13;;;;;;;;;;12911282;23;20035;-84
2023/06/08 21:25:30;;;;;;;3.33;2.20;;;;;;;;;;12931379;22;20012;-84
2023/06/08 21:30:35;;;;;;;3.60;2.25;;;;;;;;;;12883340;23;20035;-84
2023/06/08 21:35:38;;;;;;;2.70;2.38;;;;;;;;;;12929513;22;20380;-84
2023/06/08 21:40:41;;;;;;;2.60;2.30;;;;;;;;;;12931003;23;20012;-83
2023/06/08 21:45:46;;;;;;;2.50;2.00;;;;;;;;;;12910229;22;20031;-84
2023/06/08 21:50:49;;;;;;;2.22;2.03;;;;;;;;;;12930890;23;20027;-85
2023/06/08 21:55:53;;;;;;;3.25;2.45;;;;;;;;;;12928287;22;20024;-84
2023/06/08 22:00:57;;;;;;;2.88;2.05;;;;;;;;;;12910971;23;20342;-84
2023/06/08 22:06:01;;;;;;;3.00;1.95;;;;;;;;;;12883406;22;20070;-84
2023/06/08 22:11:04;;;;;;;2.83;1.75;;;;;;;;;;12884412;23;20046;-84
2023/06/08 22:16:09;;;;;;;3.00;2.17;;;;;;;;;;12908037;22;20047;-85
2023/06/08 22:21:13;;;;;;;3.03;2.20;;;;;;;;;;12882595;23;20031;-84
2023/06/08 22:26:16;;;;;;;2.88;2.10;;;;;;;;;;12882361;22;20043;-84
2023/06/08 22:31:23;;;;;;;2.13;1.90;;;;;;;;;;12882558;23;20379;-85
2023/06/08 22:36:26;;;;;;;2.30;2.10;;;;;;;;;;12908821;22;20320;-85
2023/06/08 22:41:29;;;;;;;2.60;2.40;;;;;;;;;;12882715;23;20418;-84
2023/06/08 22:46:34;;;;;;;2.55;2.25;;;;;;;;;;12881891;22;20103;-85
2023/06/08 22:51:37;;;;;;;3.72;2.50;;;;;;;;;;12883416;23;20028;-84
2023/06/08 22:56:41;;;;;;;3.30;2.10;;;;;;;;;;12910821;22;20111;-84
2023/06/08 23:01:45;;;;;;;2.30;2.10;;;;;;;;;;12883487;23;20039;-83
2023/06/08 23:06:49;;;;;;;3.70;2.42;;;;;;;;;;12877645;23;20051;-84
2023/06/08 23:11:52;;;;;;;3.17;2.75;;;;;;;;;;12879876;23;20359;-85
2023/06/08 23:16:59;;;;;;;3.05;2.72;;;;;;;;;;12878733;23;20475;-85
2023/06/08 23:22:02;;;;;;;3.40;2.35;;;;;;;;;;12907641;23;20396;-85
2023/06/08 23:27:06;;;;;;;3.95;2.42;;;;;;;;;;12879644;23;20032;-83
2023/06/08 23:32:11;;;;;;;3.08;2.33;;;;;;;;;;12878994;23;20024;-83
2023/06/08 23:37:16;;;;;;;2.85;2.33;;;;;;;;;;12878016;23;20040;-84
2023/06/08 23:42:20;;;;;;;2.58;2.33;;;;;;;;;;12905842;23;20032;-84
2023/06/08 23:47:25;;;;;;;2.45;2.15;;;;;;;;;;12878424;23;20058;-84
2023/06/08 23:52:29;;;;;;;2.85;2.50;;;;;;;;;;12904495;23;20111;-83
2023/06/08 23:57:32;;;;;;;2.83;2.38;;;;;;;;;;12876422;23;20533;-84
